sensor_id;sensor_type;location;lat;lon;timestamp;pressure;altitude;pressure_sealevel;temperature;humidity
20424;BME280;10371;49.042;8.002;2023-03-26T00:00:20;99417.16;;;7.79;100.00
20424;BME280;10371;49.042;8.002;2023-03-26T00:01:22;99414.78;;;7.76;100.00
20424;BME280;10371;49.042;8.002;2023-03-26T00:02:23;99417.03;;;7.70;100.00
20424;BME280;10371;49.042;8.002;2023-03-26T00:03:24;99413.72;;;7.68;100.00
20424;BME280;10371;49.042;8.002;2023-03-26T00:04:25;99410.41;;;7.66;100.00
20424;BME280;10371;49.042;8.002;2023-03-26T00:05:27;99410.88;;;7.59;100.00
20424;BME280;10371;49.042;8.002;2023-03-26T00:06:29;99414.41;;;7.58;100.00
20424;BME280;10371;49.042;8.002;2023-03-26T00:07:30;99406.16;;;7.53;100.00
20424;BME280;10371;49.042;8.002;2023-03-26T00:08:30;99407.81;;;7.54;100.00
20424;BME280;10371;49.042;8.002;2023-03-26T00:09:31;99409.56;;;7.54;100.00
20424;BME280;10371;49.042;8.002;2023-03-26T00:10:31;99414.88;;;7.52;100.00
20424;BME280;10371;49.042;8.002;2023-03-26T00:11:34;99409.91;;;7.49;100.00
20424;BME280;10371;49.042;8.002;2023-03-26T00:12:34;99416.03;;;7.48;100.00
20424;BME280;10371;49.042;8.002;2023-03-26T00:13:34;99411.09;;;7.45;100.00
20424;BME280;10371;49.042;8.002;2023-03-26T00:14:35;99412.97;;;7.43;100.00
20424;BME280;10371;49.042;8.002;2023-03-26T00:15:36;99408.25;;;7.37;100.00
20424;BME280;10371;49.042;8.002;2023-03-26T00:16:37;99398.13;;;7.34;100.00
20424;BME280;10371;49.042;8.002;2023-03-26T00:17:37;99402.47;;;7.33;100.00
20424;BME280;10371;49.042;8.002;2023-03-26T00:18:38;99402.56;;;7.32;100.00
20424;BME280;10371;49.042;8.002;2023-03-26T00:19:39;99404.25;;;7.33;100.00
20424;BME280;10371;49.042;8.002;2023-03-26T00:20:39;99399.16;;;7.31;100.00
20424;BME280;10371;49.042;8.002;2023-03-26T00:21:40;99400.13;;;7.30;100.00
20424;BME280;10371;49.042;8.002;2023-03-26T00:22:40;99402.81;;;7.29;100.00
20424;BME280;10371;49.042;8.002;2023-03-26T00:23:41;99403.03;;;7.26;100.00
20424;BME280;10371;49.042;8.002;2023-03-26T00:24:42;99398.09;;;7.23;100.00
20424;BME280;10371;49.042;8.002;2023-03-26T00:25:44;99404.09;;;7.23;100.00
20424;BME280;10371;49.042;8.002;2023-03-26T00:26:49;99393.84;;;7.22;100.00
20424;BME280;10371;49.042;8.002;2023-03-26T00:27:52;99398.09;;;7.23;100.00
20424;BME280;10371;49.042;8.002;2023-03-26T00:28:52;99392.91;;;7.23;100.00
20424;BME280;10371;49.042;8.002;2023-03-26T00:29:53;99393.84;;;7.22;100.00
20424;BME280;10371;49.042;8.002;2023-03-26T00:31:00;99393.84;;;7.22;100.00
20424;BME280;10371;49.042;8.002;2023-03-26T00:32:01;99391.25;;;7.22;100.00
20424;BME280;10371;49.042;8.002;2023-03-26T00:33:01;99386.91;;;7.22;100.00
20424;BME280;10371;49.042;8.002;2023-03-26T00:34:02;99390.31;;;7.23;100.00
20424;BME280;10371;49.042;8.002;2023-03-26T00:35:04;99387.72;;;7.23;100.00
20424;BME280;10371;49.042;8.002;2023-03-26T00:36:08;99378.41;;;7.20;100.00
20424;BME280;10371;49.042;8.002;2023-03-26T00:37:13;99383.59;;;7.20;100.00
20424;BME280;10371;49.042;8.002;2023-03-26T00:38:14;99386.09;;;7.22;100.00
20424;BME280;10371;49.042;8.002;2023-03-26T00:39:15;99375.72;;;7.22;100.00
20424;BME280;10371;49.042;8.002;2023-03-26T00:40:16;99386.09;;;7.22;100.00
20424;BME280;10371;49.042;8.002;2023-03-26T00:41:18;99383.38;;;7.23;100.00
20424;BME280;10371;49.042;8.002;2023-03-26T00:42:25;99385.84;;;7.25;100.00
20424;BME280;10371;49.042;8.002;2023-03-26T00:43:25;99381.50;;;7.25;100.00
20424;BME280;10371;49.042;8.002;2023-03-26T00:44:33;99381.72;;;7.22;100.00
20424;BME280;10371;49.042;8.002;2023-03-26T00:45:33;99375.38;;;7.26;100.00
20424;BME280;10371;49.042;8.002;2023-03-26T00:46:33;99381.38;;;7.27;100.00
20424;BME280;10371;49.042;8.002;2023-03-26T00:47:35;99377.63;;;7.31;100.00
20424;BME280;10371;49.042;8.002;2023-03-26T00:48:36;99375.75;;;7.33;100.00
20424;BME280;10371;49.042;8.002;2023-03-26T00:49:37;99369.53;;;7.35;100.00
20424;BME280;10371;49.042;8.002;2023-03-26T00:50:38;99371.03;;;7.38;100.00
20424;BME280;10371;49.042;8.002;2023-03-26T00:51:41;99371.66;;;7.42;100.00
20424;BME280;10371;49.042;8.002;2023-03-26T00:52:43;99365.66;;;7.41;100.00
20424;BME280;10371;49.042;8.002;2023-03-26T00:53:45;99363.75;;;7.43;100.00
20424;BME280;10371;49.042;8.002;2023-03-26T00:54:47;99365.44;;;7.44;100.00
20424;BME280;10371;49.042;8.002;2023-03-26T00:55:50;99362.84;;;7.44;100.00
20424;BME280;10371;49.042;8.002;2023-03-26T00:56:50;99363.75;;;7.43;100.00
20424;BME280;10371;49.042;8.002;2023-03-26T00:57:54;99364.38;;;7.47;100.00
20424;BME280;10371;49.042;8.002;2023-03-26T00:58:55;99353.16;;;7.46;100.00
20424;BME280;10371;49.042;8.002;2023-03-26T00:59:56;99359.19;;;7.47;100.00
20424;BME280;10371;49.042;8.002;2023-03-26T01:00:58;99351.28;;;7.48;100.00
20424;BME280;10371;49.042;8.002;2023-03-26T01:01:59;99356.47;;;7.48;100.00
20424;BME280;10371;49.042;8.002;2023-03-26T01:03:01;99352.94;;;7.49;100.00
20424;BME280;10371;49.042;8.002;2023-03-26T01:04:24;99354.84;;;7.47;100.00
20424;BME280;10371;49.042;8.002;2023-03-26T01:06:37;99346.34;;;7.45;100.00
20424;BME280;10371;49.042;8.002;2023-03-26T01:07:40;99347.41;;;7.43;100.00
20424;BME280;10371;49.042;8.002;2023-03-26T01:08:46;99350.72;;;7.45;100.00
20424;BME280;10371;49.042;8.002;2023-03-26T01:09:48;99351.63;;;7.44;100.00
20424;BME280;10371;49.042;8.002;2023-03-26T01:10:52;99344.94;;;7.41;100.00
20424;BME280;10371;49.042;8.002;2023-03-26T01:11:52;99344.94;;;7.41;100.00
20424;BME280;10371;49.042;8.002;2023-03-26T01:12:53;99344.94;;;7.41;100.00
20424;BME280;10371;49.042;8.002;2023-03-26T01:13:56;99345.03;;;7.39;100.00
20424;BME280;10371;49.042;8.002;2023-03-26T01:14:59;99343.28;;;7.40;100.00
20424;BME280;10371;49.042;8.002;2023-03-26T01:16:01;99343.41;;;7.38;100.00
20424;BME280;10371;49.042;8.002;2023-03-26T01:17:04;99346.00;;;7.38;100.00
20424;BME280;10371;49.042;8.002;2023-03-26T01:18:05;99345.16;;;7.38;100.00
20424;BME280;10371;49.042;8.002;2023-03-26T01:19:14;99348.34;;;7.42;100.00
20424;BME280;10371;49.042;8.002;2023-03-26T01:20:22;99332.56;;;7.33;100.00
20424;BME280;10371;49.042;8.002;2023-03-26T01:21:27;99330.06;;;7.32;100.00
20424;BME280;10371;49.042;8.002;2023-03-26T01:22:29;99320.78;;;7.29;100.00
20424;BME280;10371;49.042;8.002;2023-03-26T01:23:41;99326.09;;;7.28;100.00
20424;BME280;10371;49.042;8.002;2023-03-26T01:24:42;99326.41;;;7.23;100.00
20424;BME280;10371;49.042;8.002;2023-03-26T01:25:53;99320.66;;;7.20;100.00
20424;BME280;10371;49.042;8.002;2023-03-26T01:28:05;99306.03;;;7.19;100.00
20424;BME280;10371;49.042;8.002;2023-03-26T01:29:16;99310.28;;;7.20;100.00
20424;BME280;10371;49.042;8.002;2023-03-26T01:31:43;99314.28;;;7.24;100.00
20424;BME280;10371;49.042;8.002;2023-03-26T01:32:54;99304.88;;;7.23;100.00
20424;BME280;10371;49.042;8.002;2023-03-26T01:34:05;99303.84;;;7.25;100.00
20424;BME280;10371;49.042;8.002;2023-03-26T01:35:37;99305.59;;;7.25;100.00
20424;BME280;10371;49.042;8.002;2023-03-26T01:40:58;99277.13;;;7.25;100.00
20424;BME280;10371;49.042;8.002;2023-03-26T01:42:10;99277.13;;;7.25;100.00
20424;BME280;10371;49.042;8.002;2023-03-26T01:44:38;99269.34;;;7.25;100.00
20424;BME280;10371;49.042;8.002;2023-03-26T01:45:41;99265.81;;;7.26;100.00
20424;BME280;10371;49.042;8.002;2023-03-26T01:46:44;99265.59;;;7.29;100.00
20424;BME280;10371;49.042;8.002;2023-03-26T01:47:45;99265.59;;;7.29;100.00
20424;BME280;10371;49.042;8.002;2023-03-26T01:48:47;99270.75;;;7.29;100.00
20424;BME280;10371;49.042;8.002;2023-03-26T01:49:47;99262.03;;;7.30;100.00
20424;BME280;10371;49.042;8.002;2023-03-26T01:50:47;99263.00;;;7.29;100.00
20424;BME280;10371;49.042;8.002;2023-03-26T01:51:54;99252.63;;;7.29;100.00
20424;BME280;10371;49.042;8.002;2023-03-26T01:52:55;99258.63;;;7.29;100.00
20424;BME280;10371;49.042;8.002;2023-03-26T01:53:56;99259.44;;;7.30;100.00
20424;BME280;10371;49.042;8.002;2023-03-26T01:54:57;99244.16;;;7.27;100.00
20424;BME280;10371;49.042;8.002;2023-03-26T01:57:15;99254.16;;;7.31;100.00
20424;BME280;10371;49.042;8.002;2023-03-26T01:58:27;99250.75;;;7.31;100.00
20424;BME280;10371;49.042;8.002;2023-03-26T02:01:08;99250.75;;;7.31;100.00
20424;BME280;10371;49.042;8.002;2023-03-26T02:02:20;99247.47;;;7.29;100.00
20424;BME280;10371;49.042;8.002;2023-03-26T02:03:41;99246.75;;;7.27;100.00
20424;BME280;10371;49.042;8.002;2023-03-26T02:04:51;99245.00;;;7.27;100.00
20424;BME280;10371;49.042;8.002;2023-03-26T02:05:57;99241.69;;;7.25;100.00
20424;BME280;10371;49.042;8.002;2023-03-26T02:07:14;99237.09;;;7.18;100.00
20424;BME280;10371;49.042;8.002;2023-03-26T02:08:23;99237.81;;;7.20;100.00
20424;BME280;10371;49.042;8.002;2023-03-26T02:09:41;99234.50;;;7.18;100.00
20424;BME280;10371;49.042;8.002;2023-03-26T02:10:46;99236.38;;;7.15;100.00
20424;BME280;10371;49.042;8.002;2023-03-26T02:11:49;99234.75;;;7.14;100.00
20424;BME280;10371;49.042;8.002;2023-03-26T02:12:50;99237.66;;;7.10;100.00
20424;BME280;10371;49.042;8.002;2023-03-26T02:13:51;99227.78;;;7.04;100.00
20424;BME280;10371;49.042;8.002;2023-03-26T02:14:52;99230.50;;;7.02;100.00
20424;BME280;10371;49.042;8.002;2023-03-26T02:16:00;99227.22;;;7.00;100.00
20424;BME280;10371;49.042;8.002;2023-03-26T02:17:01;99218.16;;;6.94;100.00
20424;BME280;10371;49.042;8.002;2023-03-26T02:18:02;99214.03;;;6.92;100.00
20424;BME280;10371;49.042;8.002;2023-03-26T02:19:03;99212.81;;;6.85;100.00
20424;BME280;10371;49.042;8.002;2023-03-26T02:20:03;99203.41;;;6.84;100.00
20424;BME280;10371;49.042;8.002;2023-03-26T02:21:08;99209.53;;;6.83;100.00
20424;BME280;10371;49.042;8.002;2023-03-26T02:22:11;99219.66;;;6.86;100.00
20424;BME280;10371;49.042;8.002;2023-03-26T02:23:14;99219.66;;;6.86;100.00
20424;BME280;10371;49.042;8.002;2023-03-26T02:24:14;99214.50;;;6.86;100.00
20424;BME280;10371;49.042;8.002;2023-03-26T02:25:18;99208.50;;;6.85;100.00
20424;BME280;10371;49.042;8.002;2023-03-26T02:26:18;99210.22;;;6.85;100.00
20424;BME280;10371;49.042;8.002;2023-03-26T02:27:19;99210.94;;;6.87;100.00
20424;BME280;10371;49.042;8.002;2023-03-26T02:28:19;99203.19;;;6.87;100.00
20424;BME280;10371;49.042;8.002;2023-03-26T02:29:20;99206.50;;;6.89;100.00
20424;BME280;10371;49.042;8.002;2023-03-26T02:30:23;99192.75;;;6.88;100.00
20424;BME280;10371;49.042;8.002;2023-03-26T02:31:28;99202.25;;;6.88;100.00
20424;BME280;10371;49.042;8.002;2023-03-26T02:32:29;99188.38;;;6.89;100.00
20424;BME280;10371;49.042;8.002;2023-03-26T02:33:30;99197.06;;;6.88;100.00
20424;BME280;10371;49.042;8.002;2023-03-26T02:34:31;99193.56;;;6.89;100.00
20424;BME280;10371;49.042;8.002;2023-03-26T02:35:31;99190.25;;;6.87;100.00
20424;BME280;10371;49.042;8.002;2023-03-26T02:36:31;99184.13;;;6.77;100.00
20424;BME280;10371;49.042;8.002;2023-03-26T02:37:32;99189.06;;;6.80;100.00
20424;BME280;10371;49.042;8.002;2023-03-26T02:38:35;99185.53;;;6.81;100.00
20424;BME280;10371;49.042;8.002;2023-03-26T02:39:35;99186.69;;;6.77;100.00
20424;BME280;10371;49.042;8.002;2023-03-26T02:40:35;99185.16;;;6.74;100.00
20424;BME280;10371;49.042;8.002;2023-03-26T02:41:38;99189.53;;;6.74;100.00
20424;BME280;10371;49.042;8.002;2023-03-26T02:42:39;99186.25;;;6.71;100.00
20424;BME280;10371;49.042;8.002;2023-03-26T02:43:39;99180.34;;;6.69;100.00
20424;BME280;10371;49.042;8.002;2023-03-26T02:44:40;99176.34;;;6.65;100.00
20424;BME280;10371;49.042;8.002;2023-03-26T02:45:40;99178.09;;;6.65;100.00
20424;BME280;10371;49.042;8.002;2023-03-26T02:46:41;99171.41;;;6.62;100.00
20424;BME280;10371;49.042;8.002;2023-03-26T02:47:42;99174.94;;;6.61;100.00
20424;BME280;10371;49.042;8.002;2023-03-26T02:48:42;99174.94;;;6.61;100.00
20424;BME280;10371;49.042;8.002;2023-03-26T02:49:43;99166.47;;;6.59;100.00
20424;BME280;10371;49.042;8.002;2023-03-26T02:50:43;99166.94;;;6.64;100.00
20424;BME280;10371;49.042;8.002;2023-03-26T02:51:44;99157.41;;;6.65;100.00
20424;BME280;10371;49.042;8.002;2023-03-26T02:52:44;99158.69;;;6.59;100.00
20424;BME280;10371;49.042;8.002;2023-03-26T02:53:48;99160.09;;;6.52;100.00
20424;BME280;10371;49.042;8.002;2023-03-26T02:54:48;99145.03;;;6.46;100.00
20424;BME280;10371;49.042;8.002;2023-03-26T02:55:49;99149.16;;;6.48;100.00
20424;BME280;10371;49.042;8.002;2023-03-26T02:56:49;99151.50;;;6.52;100.00
20424;BME280;10371;49.042;8.002;2023-03-26T02:57:49;99147.06;;;6.54;100.00
20424;BME280;10371;49.042;8.002;2023-03-26T02:58:50;99135.88;;;6.53;100.00
20424;BME280;10371;49.042;8.002;2023-03-26T02:59:50;99143.31;;;6.58;100.00
20424;BME280;10371;49.042;8.002;2023-03-26T03:00:52;99135.56;;;6.58;100.00
20424;BME280;10371;49.042;8.002;2023-03-26T03:01:55;99138.81;;;6.60;100.00
20424;BME280;10371;49.042;8.002;2023-03-26T03:02:55;99142.03;;;6.63;100.00
20424;BME280;10371;49.042;8.002;2023-03-26T03:03:56;99152.13;;;6.66;100.00
20424;BME280;10371;49.042;8.002;2023-03-26T03:04:57;99142.38;;;6.70;100.00
20424;BME280;10371;49.042;8.002;2023-03-26T03:06:00;99140.13;;;6.77;100.00
20424;BME280;10371;49.042;8.002;2023-03-26T03:07:00;99136.41;;;6.81;100.00
20424;BME280;10371;49.042;8.002;2023-03-26T03:08:01;99133.44;;;6.74;100.00
20424;BME280;10371;49.042;8.002;2023-03-26T03:09:06;99130.97;;;6.72;100.00
20424;BME280;10371;49.042;8.002;2023-03-26T03:10:08;99122.25;;;6.74;100.00
20424;BME280;10371;49.042;8.002;2023-03-26T03:11:11;99134.97;;;6.77;100.00
20424;BME280;10371;49.042;8.002;2023-03-26T03:12:12;99132.28;;;6.78;100.00
20424;BME280;10371;49.042;8.002;2023-03-26T03:13:12;99124.38;;;6.80;100.00
20424;BME280;10371;49.042;8.002;2023-03-26T03:14:14;99131.69;;;6.86;100.00
20424;BME280;10371;49.042;8.002;2023-03-26T03:15:14;99127.91;;;6.90;100.00
20424;BME280;10371;49.042;8.002;2023-03-26T03:16:15;99128.50;;;6.93;100.00
20424;BME280;10371;49.042;8.002;2023-03-26T03:17:15;99131.94;;;6.94;100.00
20424;BME280;10371;49.042;8.002;2023-03-26T03:18:15;99129.69;;;7.01;100.00
20424;BME280;10371;49.042;8.002;2023-03-26T03:19:16;99128.63;;;7.03;100.00
20424;BME280;10371;49.042;8.002;2023-03-26T03:20:16;99128.41;;;7.06;100.00
20424;BME280;10371;49.042;8.002;2023-03-26T03:21:16;99129.91;;;7.09;100.00
20424;BME280;10371;49.042;8.002;2023-03-26T03:22:17;99122.97;;;7.09;100.00
20424;BME280;10371;49.042;8.002;2023-03-26T03:23:19;99120.38;;;7.09;100.00
20424;BME280;10371;49.042;8.002;2023-03-26T03:24:20;99112.63;;;7.09;100.00
20424;BME280;10371;49.042;8.002;2023-03-26T03:25:20;99117.09;;;7.07;100.00
20424;BME280;10371;49.042;8.002;2023-03-26T03:26:24;99115.22;;;7.09;100.00
20424;BME280;10371;49.042;8.002;2023-03-26T03:27:28;99111.00;;;7.08;100.00
20424;BME280;10371;49.042;8.002;2023-03-26T03:28:29;99107.22;;;7.12;100.00
20424;BME280;10371;49.042;8.002;2023-03-26T03:29:29;99111.47;;;7.13;100.00
20424;BME280;10371;49.042;8.002;2023-03-26T03:30:29;99106.38;;;7.12;100.00
20424;BME280;10371;49.042;8.002;2023-03-26T03:31:30;99101.69;;;7.06;100.00
20424;BME280;10371;49.042;8.002;2023-03-26T03:32:30;99094.84;;;7.05;100.00
20424;BME280;10371;49.042;8.002;2023-03-26T03:33:30;99094.41;;;7.00;100.00
20424;BME280;10371;49.042;8.002;2023-03-26T03:34:31;99089.59;;;6.95;100.00
20424;BME280;10371;49.042;8.002;2023-03-26T03:35:31;99096.28;;;6.86;100.00
20424;BME280;10371;49.042;8.002;2023-03-26T03:36:32;99087.00;;;6.84;100.00
20424;BME280;10371;49.042;8.002;2023-03-26T03:37:33;99092.75;;;6.87;100.00
20424;BME280;10371;49.042;8.002;2023-03-26T03:38:33;99086.53;;;6.90;100.00
20424;BME280;10371;49.042;8.002;2023-03-26T03:39:33;99084.75;;;6.90;100.00
20424;BME280;10371;49.042;8.002;2023-03-26T03:40:33;99084.88;;;6.89;100.00
20424;BME280;10371;49.042;8.002;2023-03-26T03:41:34;99078.75;;;6.90;100.00
20424;BME280;10371;49.042;8.002;2023-03-26T03:42:34;99078.66;;;6.91;100.00
20424;BME280;10371;49.042;8.002;2023-03-26T03:43:34;99075.13;;;6.92;100.00
20424;BME280;10371;49.042;8.002;2023-03-26T03:44:35;99077.22;;;6.99;100.00
20424;BME280;10371;49.042;8.002;2023-03-26T03:45:35;99072.66;;;6.91;100.00
20424;BME280;10371;49.042;8.002;2023-03-26T03:46:35;99074.06;;;6.95;100.00
20424;BME280;10371;49.042;8.002;2023-03-26T03:47:36;99065.09;;;6.99;100.00
20424;BME280;10371;49.042;8.002;2023-03-26T03:48:36;99072.66;;;7.02;100.00
20424;BME280;10371;49.042;8.002;2023-03-26T03:49:37;99069.81;;;7.05;100.00
20424;BME280;10371;49.042;8.002;2023-03-26T03:50:37;99066.19;;;7.08;100.00
20424;BME280;10371;49.042;8.002;2023-03-26T03:51:38;99060.75;;;7.11;100.00
20424;BME280;10371;49.042;8.002;2023-03-26T03:52:38;99062.28;;;7.13;100.00
20424;BME280;10371;49.042;8.002;2023-03-26T03:53:38;99064.75;;;7.15;100.00
20424;BME280;10371;49.042;8.002;2023-03-26T03:54:39;99054.38;;;7.15;100.00
20424;BME280;10371;49.042;8.002;2023-03-26T03:55:41;99058.50;;;7.18;100.00
20424;BME280;10371;49.042;8.002;2023-03-26T03:56:41;99055.81;;;7.19;100.00
20424;BME280;10371;49.042;8.002;2023-03-26T03:57:41;99051.44;;;7.20;100.00
20424;BME280;10371;49.042;8.002;2023-03-26T03:58:41;99060.72;;;7.22;100.00
20424;BME280;10371;49.042;8.002;2023-03-26T03:59:44;99058.00;;;7.24;100.00
20424;BME280;10371;49.042;8.002;2023-03-26T04:00:54;99056.22;;;7.24;100.00
20424;BME280;10371;49.042;8.002;2023-03-26T04:01:59;99050.94;;;7.26;100.00
20424;BME280;10371;49.042;8.002;2023-03-26T04:03:00;99044.81;;;7.27;100.00
20424;BME280;10371;49.042;8.002;2023-03-26T04:04:05;99044.72;;;7.28;100.00
20424;BME280;10371;49.042;8.002;2023-03-26T04:05:05;99040.34;;;7.29;100.00
20424;BME280;10371;49.042;8.002;2023-03-26T04:06:06;99041.97;;;7.30;100.00
20424;BME280;10371;49.042;8.002;2023-03-26T04:07:07;99035.75;;;7.32;100.00
20424;BME280;10371;49.042;8.002;2023-03-26T04:08:07;99039.03;;;7.34;100.00
20424;BME280;10371;49.042;8.002;2023-03-26T04:09:07;99023.50;;;7.34;100.00
20424;BME280;10371;49.042;8.002;2023-03-26T04:10:12;99022.44;;;7.37;100.00
20424;BME280;10371;49.042;8.002;2023-03-26T04:11:13;99017.25;;;7.37;100.00
20424;BME280;10371;49.042;8.002;2023-03-26T04:12:13;99016.44;;;7.36;100.00
20424;BME280;10371;49.042;8.002;2023-03-26T04:13:14;99013.72;;;7.38;100.00
20424;BME280;10371;49.042;8.002;2023-03-26T04:14:15;99008.69;;;7.36;100.00
20424;BME280;10371;49.042;8.002;2023-03-26T04:15:15;99015.88;;;7.33;100.00
20424;BME280;10371;49.042;8.002;2023-03-26T04:16:17;99003.59;;;7.35;100.00
20424;BME280;10371;49.042;8.002;2023-03-26T04:17:17;98998.44;;;7.35;100.00
20424;BME280;10371;49.042;8.002;2023-03-26T04:18:21;98999.28;;;7.24;100.00
20424;BME280;10371;49.042;8.002;2023-03-26T04:19:22;98992.50;;;7.12;100.00
20424;BME280;10371;49.042;8.002;2023-03-26T04:20:22;98998.50;;;7.12;100.00
20424;BME280;10371;49.042;8.002;2023-03-26T04:21:22;98993.09;;;7.15;100.00
20424;BME280;10371;49.042;8.002;2023-03-26T04:22:24;98991.91;;;7.20;100.00
20424;BME280;10371;49.042;8.002;2023-03-26T04:23:35;98994.25;;;7.23;100.00
20424;BME280;10371;49.042;8.002;2023-03-26T04:24:35;98998.09;;;7.28;100.00
20424;BME280;10371;49.042;8.002;2023-03-26T04:25:41;98995.28;;;7.31;100.00
20424;BME280;10371;49.042;8.002;2023-03-26T04:26:42;98992.69;;;7.31;100.00
20424;BME280;10371;49.042;8.002;2023-03-26T04:27:43;98992.56;;;7.33;100.00
20424;BME280;10371;49.042;8.002;2023-03-26T04:28:52;98991.50;;;7.35;100.00
20424;BME280;10371;49.042;8.002;2023-03-26T04:29:53;98986.31;;;7.35;100.00
20424;BME280;10371;49.042;8.002;2023-03-26T04:30:54;98987.81;;;7.38;100.00
20424;BME280;10371;49.042;8.002;2023-03-26T04:31:57;98990.19;;;7.41;100.00
20424;BME280;10371;49.042;8.002;2023-03-26T04:33:02;98996.03;;;7.43;100.00
20424;BME280;10371;49.042;8.002;2023-03-26T04:34:17;98988.97;;;7.45;100.00
20424;BME280;10371;49.042;8.002;2023-03-26T04:35:19;98987.47;;;7.43;100.00
20424;BME280;10371;49.042;8.002;2023-03-26T04:36:26;98990.63;;;7.46;100.00
20424;BME280;10371;49.042;8.002;2023-03-26T04:37:35;98988.97;;;7.45;100.00
20424;BME280;10371;49.042;8.002;2023-03-26T04:38:41;98989.09;;;7.44;100.00
20424;BME280;10371;49.042;8.002;2023-03-26T04:39:41;98987.34;;;7.44;100.00
20424;BME280;10371;49.042;8.002;2023-03-26T04:40:43;98989.94;;;7.44;100.00
20424;BME280;10371;49.042;8.002;2023-03-26T04:41:46;98979.31;;;7.47;100.00
20424;BME280;10371;49.042;8.002;2023-03-26T04:42:47;98973.25;;;7.37;100.00
20424;BME280;10371;49.042;8.002;2023-03-26T04:43:47;98954.47;;;7.24;100.00
20424;BME280;10371;49.042;8.002;2023-03-26T04:44:49;98947.69;;;7.11;100.00
20424;BME280;10371;49.042;8.002;2023-03-26T04:45:49;98939.97;;;7.00;100.00
20424;BME280;10371;49.042;8.002;2023-03-26T04:46:51;98942.03;;;6.85;100.00
20424;BME280;10371;49.042;8.002;2023-03-26T04:47:55;98951.75;;;6.93;100.00
20424;BME280;10371;49.042;8.002;2023-03-26T04:48:57;98965.03;;;7.00;100.00
20424;BME280;10371;49.042;8.002;2023-03-26T04:49:57;98965.59;;;7.03;100.00
20424;BME280;10371;49.042;8.002;2023-03-26T04:50:57;98980.78;;;7.08;100.00
20424;BME280;10371;49.042;8.002;2023-03-26T04:51:57;98978.63;;;7.13;100.00
20424;BME280;10371;49.042;8.002;2023-03-26T04:52:58;98974.03;;;7.16;100.00
20424;BME280;10371;49.042;8.002;2023-03-26T04:53:59;98973.78;;;7.20;100.00
20424;BME280;10371;49.042;8.002;2023-03-26T04:55:01;98970.94;;;7.23;100.00
20424;BME280;10371;49.042;8.002;2023-03-26T04:56:14;98967.84;;;7.29;100.00
20424;BME280;10371;49.042;8.002;2023-03-26T04:57:32;98960.09;;;7.29;100.00
20424;BME280;10371;49.042;8.002;2023-03-26T04:58:33;98959.59;;;7.35;100.00
20424;BME280;10371;49.042;8.002;2023-03-26T04:59:34;98952.66;;;7.35;100.00
20424;BME280;10371;49.042;8.002;2023-03-26T05:00:36;98955.56;;;7.42;100.00
20424;BME280;10371;49.042;8.002;2023-03-26T05:01:36;98957.19;;;7.43;100.00
20424;BME280;10371;49.042;8.002;2023-03-26T05:02:36;98948.38;;;7.46;100.00
20424;BME280;10371;49.042;8.002;2023-03-26T05:03:38;98943.75;;;7.49;100.00
20424;BME280;10371;49.042;8.002;2023-03-26T05:04:40;98946.22;;;7.51;100.00
20424;BME280;10371;49.042;8.002;2023-03-26T05:05:42;98941.75;;;7.53;100.00
20424;BME280;10371;49.042;8.002;2023-03-26T05:06:43;98940.69;;;7.55;100.00
20424;BME280;10371;49.042;8.002;2023-03-26T05:07:43;98936.31;;;7.56;100.00
20424;BME280;10371;49.042;8.002;2023-03-26T05:08:44;98930.06;;;7.58;100.00
20424;BME280;10371;49.042;8.002;2023-03-26T05:09:44;98930.31;;;7.55;100.00
20424;BME280;10371;49.042;8.002;2023-03-26T05:10:45;98936.16;;;7.57;100.00
20424;BME280;10371;49.042;8.002;2023-03-26T05:11:45;98929.09;;;7.59;100.00
20424;BME280;10371;49.042;8.002;2023-03-26T05:12:47;98918.63;;;7.61;100.00
20424;BME280;10371;49.042;8.002;2023-03-26T05:13:47;98918.63;;;7.61;100.00
20424;BME280;10371;49.042;8.002;2023-03-26T05:14:48;98910.03;;;7.60;100.00
20424;BME280;10371;49.042;8.002;2023-03-26T05:15:48;98907.63;;;7.48;100.00
20424;BME280;10371;49.042;8.002;2023-03-26T05:16:50;98908.97;;;7.42;100.00
20424;BME280;10371;49.042;8.002;2023-03-26T05:17:52;98904.09;;;7.49;100.00
20424;BME280;10371;49.042;8.002;2023-03-26T05:18:54;98906.31;;;7.53;100.00
20424;BME280;10371;49.042;8.002;2023-03-26T05:19:54;98889.00;;;7.54;100.00
20424;BME280;10371;49.042;8.002;2023-03-26T05:20:55;98887.91;;;7.56;100.00
20424;BME280;10371;49.042;8.002;2023-03-26T05:21:56;98878.53;;;7.55;100.00
20424;BME280;10371;49.042;8.002;2023-03-26T05:22:56;98874.84;;;7.58;100.00
20424;BME280;10371;49.042;8.002;2023-03-26T05:23:56;98868.59;;;7.60;100.00
20424;BME280;10371;49.042;8.002;2023-03-26T05:24:57;98869.41;;;7.61;100.00
20424;BME280;10371;49.042;8.002;2023-03-26T05:25:57;98866.56;;;7.64;100.00
20424;BME280;10371;49.042;8.002;2023-03-26T05:26:57;98866.44;;;7.66;100.00
20424;BME280;10371;49.042;8.002;2023-03-26T05:27:57;98867.81;;;7.70;100.00
20424;BME280;10371;49.042;8.002;2023-03-26T05:28:58;98854.72;;;7.71;100.00
20424;BME280;10371;49.042;8.002;2023-03-26T05:30:00;98858.56;;;7.77;100.00
20424;BME280;10371;49.042;8.002;2023-03-26T05:31:01;98860.22;;;7.78;100.00
20424;BME280;10371;49.042;8.002;2023-03-26T05:32:01;98855.72;;;7.80;100.00
20424;BME280;10371;49.042;8.002;2023-03-26T05:33:02;98854.78;;;7.81;100.00
20424;BME280;10371;49.042;8.002;2023-03-26T05:34:03;98845.78;;;7.85;100.00
20424;BME280;10371;49.042;8.002;2023-03-26T05:35:03;98844.84;;;7.86;100.00
20424;BME280;10371;49.042;8.002;2023-03-26T05:36:09;98845.41;;;7.90;100.00
20424;BME280;10371;49.042;8.002;2023-03-26T05:37:12;98837.75;;;7.88;100.00
20424;BME280;10371;49.042;8.002;2023-03-26T05:38:12;98838.59;;;7.89;100.00
20424;BME280;10371;49.042;8.002;2023-03-26T05:39:13;98830.66;;;7.90;100.00
20424;BME280;10371;49.042;8.002;2023-03-26T05:40:14;98838.06;;;7.95;100.00
20424;BME280;10371;49.042;8.002;2023-03-26T05:41:16;98825.91;;;7.95;100.00
20424;BME280;10371;49.042;8.002;2023-03-26T05:42:16;98828.41;;;7.97;100.00